sensor_id;sensor_type;location;lat;lon;timestamp;P1;durP1;ratioP1;P2;durP2;ratioP2
23449;SDS011;11897;45.438;12.128;2023-05-06T00:02:10;7.73;;;5.50;;
23449;SDS011;11897;45.438;12.128;2023-05-06T00:04:37;7.20;;;5.07;;
23449;SDS011;11897;45.438;12.128;2023-05-06T00:07:06;8.63;;;4.90;;
23449;SDS011;11897;45.438;12.128;2023-05-06T00:09:33;9.90;;;5.67;;
23449;SDS011;11897;45.438;12.128;2023-05-06T00:11:59;8.97;;;5.33;;
23449;SDS011;11897;45.438;12.128;2023-05-06T00:14:26;8.93;;;5.30;;
23449;SDS011;11897;45.438;12.128;2023-05-06T00:16:52;7.10;;;4.80;;
23449;SDS011;11897;45.438;12.128;2023-05-06T00:19:19;8.53;;;4.87;;
23449;SDS011;11897;45.438;12.128;2023-05-06T00:21:46;8.43;;;4.80;;
23449;SDS011;11897;45.438;12.128;2023-05-06T00:24:14;7.63;;;4.60;;
23449;SDS011;11897;45.438;12.128;2023-05-06T00:26:41;6.60;;;4.73;;
23449;SDS011;11897;45.438;12.128;2023-05-06T00:29:07;9.20;;;5.60;;
23449;SDS011;11897;45.438;12.128;2023-05-06T00:31:34;8.50;;;5.57;;
23449;SDS011;11897;45.438;12.128;2023-05-06T00:34:01;10.07;;;5.47;;
23449;SDS011;11897;45.438;12.128;2023-05-06T00:36:28;10.03;;;5.77;;
23449;SDS011;11897;45.438;12.128;2023-05-06T00:38:55;11.97;;;5.67;;
23449;SDS011;11897;45.438;12.128;2023-05-06T00:41:24;7.60;;;4.90;;
23449;SDS011;11897;45.438;12.128;2023-05-06T00:43:52;8.43;;;5.50;;
23449;SDS011;11897;45.438;12.128;2023-05-06T00:46:22;7.70;;;5.40;;
23449;SDS011;11897;45.438;12.128;2023-05-06T00:48:49;9.33;;;5.90;;
23449;SDS011;11897;45.438;12.128;2023-05-06T00:51:20;7.77;;;5.30;;
23449;SDS011;11897;45.438;12.128;2023-05-06T00:53:47;10.40;;;5.83;;
23449;SDS011;11897;45.438;12.128;2023-05-06T00:56:14;12.10;;;5.87;;
23449;SDS011;11897;45.438;12.128;2023-05-06T00:58:43;9.40;;;5.77;;
23449;SDS011;11897;45.438;12.128;2023-05-06T01:01:10;14.47;;;6.67;;
23449;SDS011;11897;45.438;12.128;2023-05-06T01:03:37;9.30;;;5.60;;
23449;SDS011;11897;45.438;12.128;2023-05-06T01:06:06;8.93;;;5.53;;
23449;SDS011;11897;45.438;12.128;2023-05-06T01:08:38;9.17;;;5.63;;
23449;SDS011;11897;45.438;12.128;2023-05-06T01:11:09;8.87;;;5.90;;
23449;SDS011;11897;45.438;12.128;2023-05-06T01:13:40;9.40;;;6.00;;
23449;SDS011;11897;45.438;12.128;2023-05-06T01:16:09;9.00;;;5.43;;
23449;SDS011;11897;45.438;12.128;2023-05-06T01:18:38;8.87;;;5.97;;
23449;SDS011;11897;45.438;12.128;2023-05-06T01:21:05;11.80;;;6.40;;
23449;SDS011;11897;45.438;12.128;2023-05-06T01:26:17;10.43;;;6.40;;
23449;SDS011;11897;45.438;12.128;2023-05-06T01:28:48;8.60;;;5.63;;
23449;SDS011;11897;45.438;12.128;2023-05-06T01:31:16;10.23;;;6.07;;
23449;SDS011;11897;45.438;12.128;2023-05-06T01:33:46;8.20;;;5.27;;
23449;SDS011;11897;45.438;12.128;2023-05-06T01:36:14;8.23;;;5.73;;
23449;SDS011;11897;45.438;12.128;2023-05-06T01:38:44;7.07;;;5.03;;
23449;SDS011;11897;45.438;12.128;2023-05-06T01:41:14;8.60;;;5.37;;
23449;SDS011;11897;45.438;12.128;2023-05-06T01:43:43;9.07;;;6.00;;
23449;SDS011;11897;45.438;12.128;2023-05-06T01:46:14;9.43;;;5.87;;
23449;SDS011;11897;45.438;12.128;2023-05-06T01:48:41;9.57;;;5.90;;
23449;SDS011;11897;45.438;12.128;2023-05-06T01:51:08;8.53;;;5.63;;
23449;SDS011;11897;45.438;12.128;2023-05-06T01:53:35;14.83;;;5.70;;
23449;SDS011;11897;45.438;12.128;2023-05-06T01:56:01;11.43;;;6.07;;
23449;SDS011;11897;45.438;12.128;2023-05-06T01:58:28;9.13;;;5.83;;
23449;SDS011;11897;45.438;12.128;2023-05-06T02:00:56;9.40;;;6.07;;
23449;SDS011;11897;45.438;12.128;2023-05-06T02:03:22;12.97;;;6.33;;
23449;SDS011;11897;45.438;12.128;2023-05-06T02:05:50;9.47;;;5.70;;
23449;SDS011;11897;45.438;12.128;2023-05-06T02:08:16;9.57;;;5.63;;
23449;SDS011;11897;45.438;12.128;2023-05-06T02:10:44;8.17;;;5.37;;
23449;SDS011;11897;45.438;12.128;2023-05-06T02:13:11;10.13;;;5.77;;
23449;SDS011;11897;45.438;12.128;2023-05-06T02:15:37;11.43;;;6.07;;
23449;SDS011;11897;45.438;12.128;2023-05-06T02:18:08;11.17;;;6.53;;
23449;SDS011;11897;45.438;12.128;2023-05-06T02:20:35;10.07;;;6.73;;
23449;SDS011;11897;45.438;12.128;2023-05-06T02:23:02;11.60;;;6.40;;
23449;SDS011;11897;45.438;12.128;2023-05-06T02:25:28;9.07;;;5.67;;
23449;SDS011;11897;45.438;12.128;2023-05-06T02:27:55;9.50;;;5.87;;
23449;SDS011;11897;45.438;12.128;2023-05-06T02:30:22;9.07;;;5.50;;
23449;SDS011;11897;45.438;12.128;2023-05-06T02:32:48;9.57;;;5.93;;
23449;SDS011;11897;45.438;12.128;2023-05-06T02:35:16;11.60;;;6.37;;
23449;SDS011;11897;45.438;12.128;2023-05-06T02:37:43;10.00;;;6.60;;
23449;SDS011;11897;45.438;12.128;2023-05-06T02:40:10;11.80;;;6.33;;
23449;SDS011;11897;45.438;12.128;2023-05-06T02:42:37;15.67;;;6.33;;
23449;SDS011;11897;45.438;12.128;2023-05-06T02:45:04;11.07;;;6.00;;
23449;SDS011;11897;45.438;12.128;2023-05-06T02:47:31;11.60;;;6.47;;
23449;SDS011;11897;45.438;12.128;2023-05-06T02:49:57;10.40;;;6.93;;
23449;SDS011;11897;45.438;12.128;2023-05-06T02:52:25;7.97;;;5.50;;
23449;SDS011;11897;45.438;12.128;2023-05-06T02:54:52;11.27;;;6.00;;
23449;SDS011;11897;45.438;12.128;2023-05-06T02:57:19;13.60;;;6.50;;
23449;SDS011;11897;45.438;12.128;2023-05-06T02:59:46;9.93;;;6.27;;
23449;SDS011;11897;45.438;12.128;2023-05-06T03:02:12;11.50;;;5.93;;
23449;SDS011;11897;45.438;12.128;2023-05-06T03:04:41;11.83;;;6.00;;
23449;SDS011;11897;45.438;12.128;2023-05-06T03:07:08;11.17;;;6.20;;
23449;SDS011;11897;45.438;12.128;2023-05-06T03:09:36;9.60;;;5.93;;
23449;SDS011;11897;45.438;12.128;2023-05-06T03:12:03;8.83;;;5.47;;
23449;SDS011;11897;45.438;12.128;2023-05-06T03:14:31;10.90;;;6.20;;
23449;SDS011;11897;45.438;12.128;2023-05-06T03:16:58;8.97;;;5.70;;
23449;SDS011;11897;45.438;12.128;2023-05-06T03:19:25;9.87;;;5.63;;
23449;SDS011;11897;45.438;12.128;2023-05-06T03:21:52;10.47;;;5.93;;
23449;SDS011;11897;45.438;12.128;2023-05-06T03:24:19;9.97;;;6.13;;
23449;SDS011;11897;45.438;12.128;2023-05-06T03:26:48;9.33;;;5.57;;
23449;SDS011;11897;45.438;12.128;2023-05-06T03:29:15;12.40;;;6.87;;
23449;SDS011;11897;45.438;12.128;2023-05-06T03:31:44;11.03;;;6.00;;
23449;SDS011;11897;45.438;12.128;2023-05-06T03:34:11;8.67;;;5.57;;
23449;SDS011;11897;45.438;12.128;2023-05-06T03:36:38;9.47;;;6.23;;
23449;SDS011;11897;45.438;12.128;2023-05-06T03:39:05;10.10;;;5.93;;
23449;SDS011;11897;45.438;12.128;2023-05-06T03:41:34;9.43;;;6.10;;
23449;SDS011;11897;45.438;12.128;2023-05-06T03:44:03;9.67;;;5.33;;
23449;SDS011;11897;45.438;12.128;2023-05-06T03:46:29;9.67;;;5.30;;
23449;SDS011;11897;45.438;12.128;2023-05-06T03:48:57;9.40;;;6.20;;
23449;SDS011;11897;45.438;12.128;2023-05-06T03:51:26;10.63;;;5.80;;
23449;SDS011;11897;45.438;12.128;2023-05-06T03:53:53;10.80;;;6.17;;
23449;SDS011;11897;45.438;12.128;2023-05-06T03:56:21;12.60;;;6.10;;
23449;SDS011;11897;45.438;12.128;2023-05-06T03:58:51;11.33;;;5.67;;
23449;SDS011;11897;45.438;12.128;2023-05-06T04:01:20;12.90;;;6.10;;
23449;SDS011;11897;45.438;12.128;2023-05-06T04:03:47;12.00;;;6.70;;
23449;SDS011;11897;45.438;12.128;2023-05-06T04:06:14;10.47;;;5.63;;
23449;SDS011;11897;45.438;12.128;2023-05-06T04:08:41;9.13;;;5.80;;
23449;SDS011;11897;45.438;12.128;2023-05-06T04:11:08;11.10;;;6.10;;
23449;SDS011;11897;45.438;12.128;2023-05-06T04:13:36;8.93;;;4.87;;
23449;SDS011;11897;45.438;12.128;2023-05-06T04:16:07;9.07;;;5.40;;
23449;SDS011;11897;45.438;12.128;2023-05-06T04:18:40;9.53;;;5.97;;
23449;SDS011;11897;45.438;12.128;2023-05-06T04:21:11;10.17;;;5.63;;
23449;SDS011;11897;45.438;12.128;2023-05-06T04:23:39;10.33;;;6.23;;
23449;SDS011;11897;45.438;12.128;2023-05-06T04:26:08;7.87;;;5.23;;
23449;SDS011;11897;45.438;12.128;2023-05-06T04:28:38;9.33;;;6.00;;
23449;SDS011;11897;45.438;12.128;2023-05-06T04:31:06;8.90;;;6.23;;
23449;SDS011;11897;45.438;12.128;2023-05-06T04:33:43;15.07;;;6.07;;
23449;SDS011;11897;45.438;12.128;2023-05-06T04:36:14;9.60;;;5.87;;
23449;SDS011;11897;45.438;12.128;2023-05-06T04:39:01;10.83;;;6.23;;
23449;SDS011;11897;45.438;12.128;2023-05-06T04:41:31;10.53;;;6.33;;
23449;SDS011;11897;45.438;12.128;2023-05-06T04:43:58;10.40;;;6.43;;
23449;SDS011;11897;45.438;12.128;2023-05-06T04:46:26;9.20;;;6.20;;
23449;SDS011;11897;45.438;12.128;2023-05-06T04:48:55;13.70;;;7.30;;
23449;SDS011;11897;45.438;12.128;2023-05-06T04:51:23;9.33;;;5.70;;
23449;SDS011;11897;45.438;12.128;2023-05-06T04:53:51;15.37;;;6.80;;
23449;SDS011;11897;45.438;12.128;2023-05-06T04:56:18;11.57;;;7.03;;
23449;SDS011;11897;45.438;12.128;2023-05-06T04:58:48;11.57;;;7.00;;
23449;SDS011;11897;45.438;12.128;2023-05-06T05:01:14;15.60;;;7.30;;
23449;SDS011;11897;45.438;12.128;2023-05-06T05:03:43;14.63;;;7.20;;
23449;SDS011;11897;45.438;12.128;2023-05-06T05:06:12;11.83;;;6.83;;
23449;SDS011;11897;45.438;12.128;2023-05-06T05:08:38;10.37;;;6.30;;
23449;SDS011;11897;45.438;12.128;2023-05-06T05:11:06;10.70;;;7.40;;
23449;SDS011;11897;45.438;12.128;2023-05-06T05:13:33;14.70;;;7.20;;
23449;SDS011;11897;45.438;12.128;2023-05-06T05:16:01;12.63;;;7.47;;
23449;SDS011;11897;45.438;12.128;2023-05-06T05:18:30;9.80;;;6.53;;
23449;SDS011;11897;45.438;12.128;2023-05-06T05:21:03;11.30;;;7.10;;
23449;SDS011;11897;45.438;12.128;2023-05-06T05:23:32;12.53;;;7.60;;
23449;SDS011;11897;45.438;12.128;2023-05-06T05:26:00;13.40;;;7.63;;
23449;SDS011;11897;45.438;12.128;2023-05-06T05:28:27;14.37;;;7.43;;
23449;SDS011;11897;45.438;12.128;2023-05-06T05:31:00;11.30;;;7.17;;
23449;SDS011;11897;45.438;12.128;2023-05-06T05:33:26;11.93;;;6.97;;
23449;SDS011;11897;45.438;12.128;2023-05-06T05:35:53;11.83;;;6.73;;
23449;SDS011;11897;45.438;12.128;2023-05-06T05:38:21;13.43;;;7.17;;
23449;SDS011;11897;45.438;12.128;2023-05-06T05:40:49;15.10;;;7.13;;
23449;SDS011;11897;45.438;12.128;2023-05-06T05:43:16;13.90;;;7.33;;
23449;SDS011;11897;45.438;12.128;2023-05-06T05:45:43;10.80;;;6.87;;
23449;SDS011;11897;45.438;12.128;2023-05-06T05:48:10;11.97;;;7.23;;
23449;SDS011;11897;45.438;12.128;2023-05-06T05:50:38;14.33;;;8.60;;
23449;SDS011;11897;45.438;12.128;2023-05-06T05:53:05;12.13;;;7.50;;
23449;SDS011;11897;45.438;12.128;2023-05-06T05:55:34;11.17;;;6.73;;
23449;SDS011;11897;45.438;12.128;2023-05-06T05:58:02;13.57;;;7.30;;
23449;SDS011;11897;45.438;12.128;2023-05-06T06:00:30;15.77;;;8.37;;
23449;SDS011;11897;45.438;12.128;2023-05-06T06:03:04;13.53;;;8.43;;
23449;SDS011;11897;45.438;12.128;2023-05-06T06:05:31;15.40;;;7.97;;
23449;SDS011;11897;45.438;12.128;2023-05-06T06:07:58;14.57;;;8.50;;
23449;SDS011;11897;45.438;12.128;2023-05-06T06:10:25;13.43;;;8.20;;
23449;SDS011;11897;45.438;12.128;2023-05-06T06:12:53;12.80;;;8.00;;
23449;SDS011;11897;45.438;12.128;2023-05-06T06:15:24;16.57;;;8.87;;
23449;SDS011;11897;45.438;12.128;2023-05-06T06:17:52;15.53;;;7.93;;
23449;SDS011;11897;45.438;12.128;2023-05-06T06:20:20;13.60;;;8.43;;
23449;SDS011;11897;45.438;12.128;2023-05-06T06:22:47;13.53;;;8.53;;
23449;SDS011;11897;45.438;12.128;2023-05-06T06:25:14;14.97;;;8.10;;
23449;SDS011;11897;45.438;12.128;2023-05-06T06:27:40;15.87;;;8.83;;
23449;SDS011;11897;45.438;12.128;2023-05-06T06:30:08;18.87;;;8.97;;
23449;SDS011;11897;45.438;12.128;2023-05-06T06:32:37;18.43;;;9.07;;
23449;SDS011;11897;45.438;12.128;2023-05-06T06:35:04;15.23;;;8.23;;
23449;SDS011;11897;45.438;12.128;2023-05-06T06:37:31;17.00;;;8.43;;
23449;SDS011;11897;45.438;12.128;2023-05-06T06:39:57;14.53;;;8.47;;
23449;SDS011;11897;45.438;12.128;2023-05-06T06:42:24;14.47;;;8.37;;
23449;SDS011;11897;45.438;12.128;2023-05-06T06:45:06;15.83;;;9.07;;
23449;SDS011;11897;45.438;12.128;2023-05-06T06:47:33;19.93;;;8.50;;
23449;SDS011;11897;45.438;12.128;2023-05-06T06:50:01;15.50;;;9.13;;
23449;SDS011;11897;45.438;12.128;2023-05-06T06:52:28;16.20;;;9.33;;
23449;SDS011;11897;45.438;12.128;2023-05-06T06:54:55;20.27;;;9.50;;
23449;SDS011;11897;45.438;12.128;2023-05-06T06:57:21;15.50;;;9.50;;
23449;SDS011;11897;45.438;12.128;2023-05-06T06:59:53;14.80;;;8.80;;
23449;SDS011;11897;45.438;12.128;2023-05-06T07:02:22;17.60;;;9.30;;
23449;SDS011;11897;45.438;12.128;2023-05-06T07:04:49;15.00;;;8.77;;
23449;SDS011;11897;45.438;12.128;2023-05-06T07:07:17;16.93;;;9.43;;
23449;SDS011;11897;45.438;12.128;2023-05-06T07:09:44;16.00;;;10.37;;
23449;SDS011;11897;45.438;12.128;2023-05-06T07:12:11;17.87;;;10.57;;
23449;SDS011;11897;45.438;12.128;2023-05-06T07:14:37;15.80;;;9.37;;
23449;SDS011;11897;45.438;12.128;2023-05-06T07:17:04;15.67;;;9.23;;
23449;SDS011;11897;45.438;12.128;2023-05-06T07:19:31;17.10;;;9.88;;
23449;SDS011;11897;45.438;12.128;2023-05-06T07:21:57;17.70;;;9.70;;
23449;SDS011;11897;45.438;12.128;2023-05-06T07:24:25;13.93;;;9.27;;
23449;SDS011;11897;45.438;12.128;2023-05-06T07:26:52;13.38;;;8.85;;
23449;SDS011;11897;45.438;12.128;2023-05-06T07:29:19;13.48;;;9.32;;
23449;SDS011;11897;45.438;12.128;2023-05-06T07:31:45;15.65;;;9.98;;
23449;SDS011;11897;45.438;12.128;2023-05-06T07:34:12;19.13;;;9.40;;
23449;SDS011;11897;45.438;12.128;2023-05-06T07:36:39;18.75;;;9.80;;
23449;SDS011;11897;45.438;12.128;2023-05-06T07:39:07;14.65;;;9.32;;
23449;SDS011;11897;45.438;12.128;2023-05-06T07:41:36;13.15;;;9.45;;
23449;SDS011;11897;45.438;12.128;2023-05-06T07:44:03;15.75;;;9.13;;
23449;SDS011;11897;45.438;12.128;2023-05-06T07:46:30;20.50;;;10.52;;
23449;SDS011;11897;45.438;12.128;2023-05-06T07:48:56;14.02;;;8.70;;
23449;SDS011;11897;45.438;12.128;2023-05-06T07:51:23;15.68;;;9.65;;
23449;SDS011;11897;45.438;12.128;2023-05-06T07:53:51;14.40;;;8.82;;
23449;SDS011;11897;45.438;12.128;2023-05-06T07:56:17;20.13;;;9.63;;
23449;SDS011;11897;45.438;12.128;2023-05-06T07:58:45;11.18;;;8.77;;
23449;SDS011;11897;45.438;12.128;2023-05-06T08:01:13;15.13;;;8.90;;
23449;SDS011;11897;45.438;12.128;2023-05-06T08:03:40;14.48;;;9.18;;
23449;SDS011;11897;45.438;12.128;2023-05-06T08:06:07;14.65;;;8.80;;
23449;SDS011;11897;45.438;12.128;2023-05-06T08:08:33;12.68;;;7.85;;
23449;SDS011;11897;45.438;12.128;2023-05-06T08:11:00;13.60;;;8.45;;
23449;SDS011;11897;45.438;12.128;2023-05-06T08:13:27;12.88;;;8.48;;
23449;SDS011;11897;45.438;12.128;2023-05-06T08:15:56;13.15;;;7.63;;
23449;SDS011;11897;45.438;12.128;2023-05-06T08:18:23;9.90;;;6.68;;
23449;SDS011;11897;45.438;12.128;2023-05-06T08:20:50;11.55;;;7.43;;
23449;SDS011;11897;45.438;12.128;2023-05-06T08:23:17;8.55;;;6.53;;
23449;SDS011;11897;45.438;12.128;2023-05-06T08:25:43;9.15;;;6.78;;
23449;SDS011;11897;45.438;12.128;2023-05-06T08:28:10;11.25;;;6.53;;
23449;SDS011;11897;45.438;12.128;2023-05-06T08:30:37;11.38;;;7.03;;
23449;SDS011;11897;45.438;12.128;2023-05-06T08:33:05;8.85;;;6.10;;
23449;SDS011;11897;45.438;12.128;2023-05-06T08:35:32;8.43;;;5.40;;
23449;SDS011;11897;45.438;12.128;2023-05-06T08:37:58;6.68;;;5.18;;
23449;SDS011;11897;45.438;12.128;2023-05-06T08:40:26;9.88;;;5.72;;
23449;SDS011;11897;45.438;12.128;2023-05-06T08:42:54;7.40;;;5.47;;
23449;SDS011;11897;45.438;12.128;2023-05-06T08:45:21;8.55;;;5.45;;
23449;SDS011;11897;45.438;12.128;2023-05-06T08:47:48;7.68;;;5.00;;
23449;SDS011;11897;45.438;12.128;2023-05-06T08:50:16;6.30;;;4.35;;
23449;SDS011;11897;45.438;12.128;2023-05-06T08:52:43;9.43;;;5.43;;
23449;SDS011;11897;45.438;12.128;2023-05-06T08:55:10;8.90;;;4.95;;
23449;SDS011;11897;45.438;12.128;2023-05-06T08:57:37;8.75;;;3.92;;
23449;SDS011;11897;45.438;12.128;2023-05-06T09:00:07;9.63;;;4.10;;
23449;SDS011;11897;45.438;12.128;2023-05-06T09:02:35;6.38;;;4.05;;
23449;SDS011;11897;45.438;12.128;2023-05-06T09:05:06;5.40;;;3.05;;
23449;SDS011;11897;45.438;12.128;2023-05-06T09:07:34;6.03;;;3.38;;
23449;SDS011;11897;45.438;12.128;2023-05-06T09:10:04;4.75;;;3.30;;
23449;SDS011;11897;45.438;12.128;2023-05-06T09:12:31;3.60;;;2.53;;
23449;SDS011;11897;45.438;12.128;2023-05-06T09:14:59;4.70;;;3.20;;
23449;SDS011;11897;45.438;12.128;2023-05-06T09:17:27;3.15;;;2.80;;
23449;SDS011;11897;45.438;12.128;2023-05-06T09:19:57;7.93;;;3.38;;
23449;SDS011;11897;45.438;12.128;2023-05-06T09:22:24;6.28;;;2.50;;
23449;SDS011;11897;45.438;12.128;2023-05-06T09:24:53;2.40;;;1.75;;
23449;SDS011;11897;45.438;12.128;2023-05-06T09:27:22;4.35;;;2.30;;
23449;SDS011;11897;45.438;12.128;2023-05-06T09:29:59;3.53;;;3.15;;
23449;SDS011;11897;45.438;12.128;2023-05-06T09:32:28;3.83;;;2.72;;
23449;SDS011;11897;45.438;12.128;2023-05-06T09:35:03;3.10;;;2.70;;
23449;SDS011;11897;45.438;12.128;2023-05-06T09:37:32;3.60;;;2.20;;
23449;SDS011;11897;45.438;12.128;2023-05-06T09:40:10;3.40;;;2.40;;
23449;SDS011;11897;45.438;12.128;2023-05-06T09:42:38;3.15;;;2.40;;
23449;SDS011;11897;45.438;12.128;2023-05-06T09:45:07;4.18;;;3.20;;
23449;SDS011;11897;45.438;12.128;2023-05-06T09:47:34;4.13;;;2.90;;
23449;SDS011;11897;45.438;12.128;2023-05-06T09:50:02;4.80;;;2.72;;
23449;SDS011;11897;45.438;12.128;2023-05-06T09:52:29;5.38;;;2.95;;
23449;SDS011;11897;45.438;12.128;2023-05-06T09:54:57;4.13;;;2.95;;
23449;SDS011;11897;45.438;12.128;2023-05-06T09:57:30;5.32;;;2.95;;
23449;SDS011;11897;45.438;12.128;2023-05-06T09:59:58;3.25;;;2.95;;
23449;SDS011;11897;45.438;12.128;2023-05-06T10:02:38;4.88;;;2.85;;
23449;SDS011;11897;45.438;12.128;2023-05-06T10:05:05;4.80;;;3.05;;
23449;SDS011;11897;45.438;12.128;2023-05-06T10:07:33;3.17;;;2.63;;
23449;SDS011;11897;45.438;12.128;2023-05-06T10:10:02;2.63;;;2.10;;
23449;SDS011;11897;45.438;12.128;2023-05-06T10:12:32;1.45;;;1.35;;
23449;SDS011;11897;45.438;12.128;2023-05-06T10:14:58;2.05;;;1.75;;
23449;SDS011;11897;45.438;12.128;2023-05-06T10:17:25;1.92;;;1.77;;
23449;SDS011;11897;45.438;12.128;2023-05-06T10:19:54;2.30;;;1.83;;
23449;SDS011;11897;45.438;12.128;2023-05-06T10:22:25;3.08;;;1.27;;
23449;SDS011;11897;45.438;12.128;2023-05-06T10:24:57;2.40;;;1.75;;
23449;SDS011;11897;45.438;12.128;2023-05-06T10:27:24;2.08;;;1.65;;
23449;SDS011;11897;45.438;12.128;2023-05-06T10:29:53;4.30;;;2.05;;
23449;SDS011;11897;45.438;12.128;2023-05-06T10:32:23;3.28;;;2.03;;
23449;SDS011;11897;45.438;12.128;2023-05-06T10:34:54;1.73;;;1.60;;
23449;SDS011;11897;45.438;12.128;2023-05-06T10:37:23;2.20;;;1.73;;
23449;SDS011;11897;45.438;12.128;2023-05-06T10:39:51;2.88;;;1.90;;
23449;SDS011;11897;45.438;12.128;2023-05-06T10:42:18;1.65;;;1.52;;
23449;SDS011;11897;45.438;12.128;2023-05-06T10:45:02;2.25;;;1.42;;
23449;SDS011;11897;45.438;12.128;2023-05-06T10:50:20;4.30;;;1.58;;
23449;SDS011;11897;45.438;12.128;2023-05-06T10:52:49;1.58;;;1.23;;
23449;SDS011;11897;45.438;12.128;2023-05-06T10:55:25;1.77;;;1.55;;
23449;SDS011;11897;45.438;12.128;2023-05-06T10:57:53;2.22;;;1.60;;
23449;SDS011;11897;45.438;12.128;2023-05-06T11:00:22;1.70;;;1.50;;
23449;SDS011;11897;45.438;12.128;2023-05-06T11:02:53;2.72;;;1.85;;
23449;SDS011;11897;45.438;12.128;2023-05-06T11:05:20;5.40;;;1.80;;
23449;SDS011;11897;45.438;12.128;2023-05-06T11:07:48;2.55;;;1.80;;
23449;SDS011;11897;45.438;12.128;2023-05-06T11:10:15;2.17;;;1.48;;
23449;SDS011;11897;45.438;12.128;2023-05-06T11:12:56;7.40;;;1.60;;
23449;SDS011;11897;45.438;12.128;2023-05-06T11:15:39;1.15;;;1.08;;
23449;SDS011;11897;45.438;12.128;2023-05-06T11:26:23;1.67;;;1.35;;
23449;SDS011;11897;45.438;12.128;2023-05-06T11:28:50;4.80;;;1.35;;
23449;SDS011;11897;45.438;12.128;2023-05-06T11:31:18;1.45;;;1.33;;
23449;SDS011;11897;45.438;12.128;2023-05-06T11:33:47;2.03;;;1.73;;
23449;SDS011;11897;45.438;12.128;2023-05-06T11:36:14;3.03;;;1.65;;
23449;SDS011;11897;45.438;12.128;2023-05-06T11:38:45;2.53;;;1.45;;
23449;SDS011;11897;45.438;12.128;2023-05-06T11:41:13;7.93;;;4.90;;
23449;SDS011;11897;45.438;12.128;2023-05-06T11:43:44;3.50;;;1.98;;
23449;SDS011;11897;45.438;12.128;2023-05-06T11:46:11;2.03;;;1.83;;
23449;SDS011;11897;45.438;12.128;2023-05-06T11:48:39;1.80;;;1.33;;
23449;SDS011;11897;45.438;12.128;2023-05-06T11:51:06;1.40;;;1.30;;
23449;SDS011;11897;45.438;12.128;2023-05-06T11:53:32;3.42;;;1.60;;
23449;SDS011;11897;45.438;12.128;2023-05-06T11:56:01;1.63;;;1.38;;
23449;SDS011;11897;45.438;12.128;2023-05-06T11:58:28;2.15;;;1.70;;
23449;SDS011;11897;45.438;12.128;2023-05-06T12:00:57;1.67;;;1.58;;
23449;SDS011;11897;45.438;12.128;2023-05-06T12:03:24;2.28;;;1.75;;
23449;SDS011;11897;45.438;12.128;2023-05-06T12:05:53;2.53;;;1.50;;
23449;SDS011;11897;45.438;12.128;2023-05-06T12:08:20;1.65;;;1.55;;
23449;SDS011;11897;45.438;12.128;2023-05-06T12:10:48;1.38;;;1.15;;
23449;SDS011;11897;45.438;12.128;2023-05-06T12:13:15;2.03;;;1.58;;
23449;SDS011;11897;45.438;12.128;2023-05-06T12:15:42;2.53;;;1.73;;
23449;SDS011;11897;45.438;12.128;2023-05-06T12:18:09;1.70;;;1.60;;
23449;SDS011;11897;45.438;12.128;2023-05-06T12:20:36;1.95;;;1.70;;
23449;SDS011;11897;45.438;12.128;2023-05-06T12:23:09;1.70;;;1.60;;
23449;SDS011;11897;45.438;12.128;2023-05-06T12:25:37;2.42;;;1.83;;
23449;SDS011;11897;45.438;12.128;2023-05-06T12:28:13;2.13;;;1.92;;
23449;SDS011;11897;45.438;12.128;2023-05-06T12:30:40;2.47;;;2.00;;
23449;SDS011;11897;45.438;12.128;2023-05-06T12:33:09;5.13;;;1.70;;
23449;SDS011;11897;45.438;12.128;2023-05-06T12:35:37;4.30;;;1.80;;
23449;SDS011;11897;45.438;12.128;2023-05-06T12:38:10;4.72;;;2.30;;
23449;SDS011;11897;45.438;12.128;2023-05-06T12:40:51;2.75;;;1.85;;
23449;SDS011;11897;45.438;12.128;2023-05-06T12:43:26;3.60;;;2.17;;
23449;SDS011;11897;45.438;12.128;2023-05-06T12:46:01;3.65;;;2.17;;
23449;SDS011;11897;45.438;12.128;2023-05-06T12:48:27;2.33;;;2.00;;
23449;SDS011;11897;45.438;12.128;2023-05-06T12:50:54;4.35;;;2.38;;
23449;SDS011;11897;45.438;12.128;2023-05-06T12:53:30;2.95;;;2.10;;
23449;SDS011;11897;45.438;12.128;2023-05-06T12:55:58;3.22;;;2.30;;
23449;SDS011;11897;45.438;12.128;2023-05-06T12:58:25;3.00;;;2.20;;
23449;SDS011;11897;45.438;12.128;2023-05-06T13:00:51;3.65;;;2.05;;
23449;SDS011;11897;45.438;12.128;2023-05-06T13:03:18;2.85;;;1.90;;
23449;SDS011;11897;45.438;12.128;2023-05-06T13:05:45;3.35;;;2.38;;
23449;SDS011;11897;45.438;12.128;2023-05-06T13:08:14;2.20;;;2.00;;
23449;SDS011;11897;45.438;12.128;2023-05-06T13:10:42;2.47;;;2.28;;
23449;SDS011;11897;45.438;12.128;2023-05-06T13:13:08;2.75;;;2.22;;
23449;SDS011;11897;45.438;12.128;2023-05-06T13:15:36;3.40;;;2.03;;
23449;SDS011;11897;45.438;12.128;2023-05-06T13:18:03;2.33;;;2.10;;
23449;SDS011;11897;45.438;12.128;2023-05-06T13:20:30;2.83;;;1.88;;
23449;SDS011;11897;45.438;12.128;2023-05-06T13:22:57;4.07;;;2.17;;
23449;SDS011;11897;45.438;12.128;2023-05-06T13:25:24;3.22;;;2.22;;
23449;SDS011;11897;45.438;12.128;2023-05-06T13:27:52;2.30;;;1.90;;
23449;SDS011;11897;45.438;12.128;2023-05-06T13:30:19;3.47;;;1.98;;
23449;SDS011;11897;45.438;12.128;2023-05-06T13:32:46;2.10;;;1.85;;
23449;SDS011;11897;45.438;12.128;2023-05-06T13:35:12;2.38;;;2.00;;
23449;SDS011;11897;45.438;12.128;2023-05-06T13:37:39;4.45;;;1.90;;
23449;SDS011;11897;45.438;12.128;2023-05-06T13:40:06;2.28;;;1.85;;
23449;SDS011;11897;45.438;12.128;2023-05-06T13:42:33;2.60;;;2.03;;
23449;SDS011;11897;45.438;12.128;2023-05-06T13:45:01;1.90;;;1.70;;
23449;SDS011;11897;45.438;12.128;2023-05-06T13:47:28;1.98;;;1.60;;
23449;SDS011;11897;45.438;12.128;2023-05-06T13:49:55;2.42;;;1.80;;
23449;SDS011;11897;45.438;12.128;2023-05-06T13:52:21;1.63;;;1.50;;
23449;SDS011;11897;45.438;12.128;2023-05-06T13:54:48;2.42;;;1.77;;
23449;SDS011;11897;45.438;12.128;2023-05-06T13:57:15;2.17;;;1.65;;
23449;SDS011;11897;45.438;12.128;2023-05-06T13:59:43;1.67;;;1.50;;
23449;SDS011;11897;45.438;12.128;2023-05-06T14:02:11;1.52;;;1.33;;
23449;SDS011;11897;45.438;12.128;2023-05-06T14:04:37;1.63;;;1.38;;
23449;SDS011;11897;45.438;12.128;2023-05-06T14:07:04;2.55;;;1.70;;
23449;SDS011;11897;45.438;12.128;2023-05-06T14:09:31;3.70;;;2.53;;
23449;SDS011;11897;45.438;12.128;2023-05-06T14:11:57;1.55;;;1.45;;
23449;SDS011;11897;45.438;12.128;2023-05-06T14:14:24;1.55;;;1.38;;
23449;SDS011;11897;45.438;12.128;2023-05-06T14:16:51;1.70;;;1.60;;
23449;SDS011;11897;45.438;12.128;2023-05-06T14:19:21;1.85;;;1.50;;
23449;SDS011;11897;45.438;12.128;2023-05-06T14:21:48;1.55;;;1.38;;
23449;SDS011;11897;45.438;12.128;2023-05-06T14:24:15;1.77;;;1.67;;
23449;SDS011;11897;45.438;12.128;2023-05-06T14:26:42;1.70;;;1.50;;
23449;SDS011;11897;45.438;12.128;2023-05-06T14:29:10;1.38;;;1.27;;
23449;SDS011;11897;45.438;12.128;2023-05-06T14:31:36;2.25;;;1.52;;
23449;SDS011;11897;45.438;12.128;2023-05-06T14:34:03;2.25;;;1.42;;
23449;SDS011;11897;45.438;12.128;2023-05-06T14:36:31;3.15;;;1.60;;
23449;SDS011;11897;45.438;12.128;2023-05-06T14:38:58;1.13;;;1.02;;
23449;SDS011;11897;45.438;12.128;2023-05-06T14:41:25;1.65;;;1.48;;
23449;SDS011;11897;45.438;12.128;2023-05-06T14:43:51;2.47;;;1.40;;
23449;SDS011;11897;45.438;12.128;2023-05-06T14:46:18;2.28;;;1.55;;
23449;SDS011;11897;45.438;12.128;2023-05-06T14:48:45;2.90;;;1.45;;